Navigator Of The Seas — C6FU4 — position and weather

sailwx.info

Track history (hours):
 
Tides and Currents Weather Stations Pressure Air Temp Water Temp Dewpoint Dewpoint Depression Visibility Wind Speed Wind Dir Waves Ship Positions

Navigator Of The Seas

Operator: Royal Caribbean Cruises Ltd

Last reported at 2019-Sep-21 06:00 UTC. Time now 2019-Sep-21 11:29 UTC.
Position N 26°06' W 078°42'.

Type: Passenger vessel. MMSI: 311478000.

Wind from 050 at 32 knots

Barometer 1023.2 mb
Air temperature 24.0 ° C
Visibility: greater than 5.4 NM
Water temperature 28.0 ° C

Date/timePositionNaut miles runAvg speedWind from/ knotsBaromVisibWave heightAir tempDewpointWater temp
2019-Sep-21 06:00N 26°06' W 078°42'35 8.8 050 / 321023.2 5.4 24.0 28.0
2019-Sep-21 02:03N 26°08' W 079°20'0 8.9
2019-Sep-21 02:00N 26°08' W 079°21'3183.3
2019-Sep-21 02:00N 26°06' W 079°18'713.8 070 / 301023.210.8 27.0 29.0
2019-Sep-21 01:30N 26°06' W 079°25'5 9.3
2019-Sep-21 01:00N 26°03' W 079°30'5 9.6
2019-Sep-21 00:30N 26°01' W 079°35'5 9.5
2019-Sep-21 00:00N 25°59' W 079°39'5 9.7
2019-Sep-20 23:30N 25°56' W 079°44'510.3
2019-Sep-20 23:00N 25°54' W 079°49'510.3
2019-Sep-20 22:30N 25°51' W 079°54'510.2
2019-Sep-20 22:00N 25°48' W 079°58'5 9.8
2019-Sep-20 21:30N 25°45' W 080°03'4 7.5
2019-Sep-20 21:01N 25°45' W 080°07'2 4.5
2019-Sep-20 20:29N 25°46' W 080°09'0 0.0
2019-Sep-20 19:59N 25°46' W 080°09'0 0.0
2019-Sep-20 19:29N 25°46' W 080°09'0 0.0
2019-Sep-20 18:59N 25°46' W 080°09'0 0.0
2019-Sep-20 18:29N 25°46' W 080°09'0 0.0
2019-Sep-20 17:59N 25°46' W 080°09'0 0.0
2019-Sep-20 17:29N 25°46' W 080°09'0 0.0
2019-Sep-20 16:59N 25°46' W 080°09'0 0.0
2019-Sep-20 16:29N 25°46' W 080°09'0 0.0
2019-Sep-20 15:59N 25°46' W 080°09'0 0.0
2019-Sep-20 15:29N 25°46' W 080°09'0 0.0
2019-Sep-20 14:59N 25°46' W 080°09'0 0.0
2019-Sep-20 14:29N 25°46' W 080°09'0 0.0
2019-Sep-20 13:59N 25°46' W 080°09'0 0.0
2019-Sep-20 13:29N 25°46' W 080°09'0 0.0
2019-Sep-20 12:59N 25°46' W 080°09'0 0.0
2019-Sep-20 12:29N 25°46' W 080°09'0 0.0
2019-Sep-20 11:59N 25°46' W 080°09'0 0.0
2019-Sep-20 11:29N 25°46' W 080°09'0 0.0
2019-Sep-20 10:59N 25°46' W 080°09'0 0.0
2019-Sep-20 10:29N 25°46' W 080°09'1 1.6
2019-Sep-20 10:00N 25°47' W 080°10'0 0.7
2019-Sep-20 09:30N 25°47' W 080°10'5 9.4
2019-Sep-20 09:00N 25°46' W 080°05'3 6.5
2019-Sep-20 08:30N 25°47' W 080°01'2 4.2
2019-Sep-20 08:00N 25°49' W 079°60'3 5.2
2019-Sep-20 07:30N 25°50' W 079°57'3 5.8
2019-Sep-20 07:00N 25°52' W 079°54'3 5.3
2019-Sep-20 06:30N 25°53' W 079°52'3 5.2
2019-Sep-20 06:00N 25°55' W 079°50'193.2
2019-Sep-20 06:00N 25°54' W 079°48'2 4.2 060 / 251020.2 5.4 25.0 29.0
2019-Sep-20 05:30N 25°56' W 079°47'3 5.1
2019-Sep-20 05:00N 25°57' W 079°45'3 5.3
2019-Sep-20 04:30N 25°59' W 079°42'3 5.2
2019-Sep-20 04:00N 26°00' W 079°40'3 5.3
2019-Sep-20 03:30N 26°01' W 079°37'3 5.5
2019-Sep-20 03:00N 26°03' W 079°35'3 5.5
2019-Sep-20 02:30N 26°04' W 079°32'3 5.8
2019-Sep-20 02:00N 26°06' W 079°30'5386.7
2019-Sep-20 02:00N 26°06' W 079°24'3 6.3 050 / 271020.210.8 26.0 29.0
2019-Sep-20 01:30N 26°08' W 079°27'3 5.7
2019-Sep-20 01:00N 26°09' W 079°24'3 5.6
2019-Sep-20 00:30N 26°11' W 079°21'3 5.9
2019-Sep-20 00:00N 26°12' W 079°19'10 6.4
2019-Sep-19 22:30N 26°17' W 079°09'9 0.6
2019-Sep-19 08:45N 26°19' W 079°19'2 7.9
2019-Sep-19 08:30N 26°18' W 079°21'4 7.6
2019-Sep-19 08:00N 26°16' W 079°24'4 7.2
2019-Sep-19 07:30N 26°15' W 079°28'4 8.3
2019-Sep-19 07:00N 26°12' W 079°31'140.3
2019-Sep-19 07:00N 26°12' W 079°30'4 8.0 050 / 201020.2 5.4 25.0 29.0
2019-Sep-19 06:30N 26°11' W 079°26'4 8.7
2019-Sep-19 06:00N 26°11' W 079°21'5 9.6
2019-Sep-19 05:30N 26°13' W 079°17'7 9.6
2019-Sep-19 04:46N 26°17' W 079°10'117 4.5
2019-Sep-18 03:00N 25°18' W 077°18'52 2.5 020 / 131019.210.8 28.0 28.0
2019-Sep-17 06:00N 25°54' W 078°00'6115.1 320 / 151018.2 5.4 25.0 30.0
2019-Sep-17 02:00N 26°06' W 079°06'575.2 340 / 181019.210.8 29.0 29.0
2019-Sep-17 01:55N 26°09' W 079°11'613.3
2019-Sep-17 01:29N 26°06' W 079°17'612.8
2019-Sep-17 01:00N 26°04' W 079°23'612.8
2019-Sep-17 00:30N 26°01' W 079°29'612.6
2019-Sep-17 00:00N 25°58' W 079°36'612.5
2019-Sep-16 23:30N 25°56' W 079°42'612.7
2019-Sep-16 23:00N 25°53' W 079°48'713.5
2019-Sep-16 22:30N 25°50' W 079°55'612.9
2019-Sep-16 22:00N 25°47' W 080°02'611.0
2019-Sep-16 21:30N 25°46' W 080°08'3 6.8
2019-Sep-16 21:01N 25°47' W 080°11'1 2.8
2019-Sep-16 20:30N 25°46' W 080°10'0 0.0
2019-Sep-16 20:00N 25°46' W 080°10'0 0.0
2019-Sep-16 19:30N 25°46' W 080°10'0 0.0
2019-Sep-16 19:00N 25°46' W 080°10'0 0.0
2019-Sep-16 18:30N 25°46' W 080°10'0 0.0
2019-Sep-16 18:00N 25°46' W 080°10'0 0.0
2019-Sep-16 17:30N 25°46' W 080°10'0 0.0
2019-Sep-16 17:00N 25°46' W 080°10'0 0.0
2019-Sep-16 16:30N 25°46' W 080°10'0 0.0
2019-Sep-16 16:00N 25°46' W 080°10'0 0.0
2019-Sep-16 15:30N 25°46' W 080°10'0 0.0
2019-Sep-16 15:00N 25°46' W 080°10'0 0.0
2019-Sep-16 14:30N 25°46' W 080°10'0 0.0
2019-Sep-16 14:00N 25°46' W 080°10'0 0.0
2019-Sep-16 13:31N 25°46' W 080°10'0 0.0
2019-Sep-16 12:58N 25°46' W 080°10'0 0.0
2019-Sep-16 12:28N 25°46' W 080°10'0 0.0
2019-Sep-16 11:58N 25°46' W 080°10'0 0.0
2019-Sep-16 11:25N 25°46' W 080°10'0 0.0
2019-Sep-16 10:58N 25°46' W 080°10'0 0.0
2019-Sep-16 10:28N 25°46' W 080°10'0 0.0
2019-Sep-16 09:58N 25°46' W 080°10'2 3.6
2019-Sep-16 09:30N 25°46' W 080°08'611.9
2019-Sep-16 09:00N 25°47' W 080°01'611.4
2019-Sep-16 08:30N 25°49' W 079°56'714.1
2019-Sep-16 08:00N 25°53' W 079°49'714.4
2019-Sep-16 07:30N 25°56' W 079°42'815.5
2019-Sep-16 07:00N 25°59' W 079°34'815.7
2019-Sep-16 06:30N 26°03' W 079°26'815.8
2019-Sep-16 06:00N 26°06' W 079°18'6394.3
2019-Sep-16 06:00N 26°00' W 079°18'4321.6 300 / 201018.2 5.4 24.0 29.0
2019-Sep-16 04:00N 26°00' W 078°30'74 3.0 200 / 151020.2 5.4 26.0 28.0
2019-Sep-15 03:00N 25°24' W 077°18'87 4.1 240 / 27 10.8 26.0 28.0
2019-Sep-14 06:00N 26°06' W 078°42'33 9.8 040 / 241019.2 5.4 25.0 30.0
2019-Sep-14 02:36N 26°08' W 079°19'1 9.2
2019-Sep-14 02:28N 26°08' W 079°20'4 9.2
2019-Sep-14 02:00N 26°06' W 079°24'5 9.6
2019-Sep-14 01:30N 26°03' W 079°29'5 9.5
2019-Sep-14 01:00N 26°01' W 079°34'3237.8
2019-Sep-14 01:00N 26°00' W 079°30'715.4 060 / 25 5.4 26.0 29.0
2019-Sep-14 00:30N 25°59' W 079°38'5 9.6
2019-Sep-14 00:00N 25°57' W 079°43'5 9.6
2019-Sep-13 23:30N 25°55' W 079°48'5 9.6
2019-Sep-13 23:00N 25°52' W 079°52'5 9.1
2019-Sep-13 22:30N 25°50' W 079°56'5 9.2
2019-Sep-13 22:01N 25°47' W 080°01'4 7.2
2019-Sep-13 21:31N 25°46' W 080°04'5 9.2
2019-Sep-13 21:00N 25°46' W 080°09'0 0.2
2019-Sep-13 20:25N 25°46' W 080°09'0 0.0
2019-Sep-13 19:58N 25°46' W 080°09'0 0.0
2019-Sep-13 19:25N 25°46' W 080°09'0 0.0
2019-Sep-13 18:58N 25°46' W 080°09'0 0.0
2019-Sep-13 18:28N 25°46' W 080°09'0 0.0
2019-Sep-13 17:58N 25°46' W 080°09'0 0.0
2019-Sep-13 17:28N 25°46' W 080°09'0 0.0
2019-Sep-13 16:58N 25°46' W 080°09'0 0.0
2019-Sep-13 16:25N 25°46' W 080°09'0 0.0
2019-Sep-13 15:58N 25°46' W 080°09'0 0.0
2019-Sep-13 15:28N 25°46' W 080°09'0 0.0
2019-Sep-13 14:58N 25°46' W 080°09'0 0.0
2019-Sep-13 14:28N 25°46' W 080°09'0 0.0
2019-Sep-13 13:58N 25°46' W 080°09'0 0.0
2019-Sep-13 13:28N 25°46' W 080°09'0 0.0
2019-Sep-13 12:58N 25°46' W 080°09'0 0.0
2019-Sep-13 12:28N 25°46' W 080°09'0 0.0
2019-Sep-13 11:58N 25°46' W 080°09'0 0.0
2019-Sep-13 11:28N 25°46' W 080°09'0 0.0
2019-Sep-13 10:58N 25°46' W 080°09'0 0.0
2019-Sep-13 10:28N 25°46' W 080°09'0 0.5
2019-Sep-13 10:00N 25°46' W 080°10'1 1.7
2019-Sep-13 09:30N 25°47' W 080°11'4 8.7
2019-Sep-13 09:00N 25°46' W 080°06'4 7.6
2019-Sep-13 08:30N 25°47' W 080°02'4 8.0
2019-Sep-13 08:00N 25°49' W 079°58'5 9.6
2019-Sep-13 07:30N 25°52' W 079°54'5 9.9
2019-Sep-13 07:00N 25°54' W 079°49'5 9.5
2019-Sep-13 06:30N 25°57' W 079°45'5 9.9
2019-Sep-13 06:00N 25°60' W 079°40'510.1
2019-Sep-13 05:30N 26°03' W 079°35'510.6
2019-Sep-13 05:00N 26°05' W 079°30'611.3
2019-Sep-13 04:30N 26°08' W 079°25'611.8
2019-Sep-13 04:00N 26°12' W 079°20'1213.1
2019-Sep-13 03:06N 26°17' W 079°08'93 4.4
2019-Sep-12 06:00N 25°48' W 077°30'38 7.5 070 / 161019.2 5.4 25.0 30.0
2019-Sep-12 01:00N 25°12' W 077°18'65 3.4 080 / 271020.210.8 27.0 29.0
2019-Sep-11 06:00N 26°00' W 078°06'   080 / 211024.2 5.4 26.0 30.0
Track history (hours):
 
Tides and Currents Weather Stations Pressure Air Temp Water Temp Dewpoint Dewpoint Depression Visibility Wind Speed Wind Dir Waves Ship Positions

Navigator Of The Seas

Operator: Royal Caribbean Cruises Ltd

Last reported at 2019-Sep-21 06:00 UTC. Time now 2019-Sep-21 11:29 UTC.
Position N 26°06' W 078°42'.

Type: Passenger vessel. MMSI: 311478000.

Wind from 050 at 32 knots

Barometer 1023.2 mb
Air temperature 24.0 ° C
Visibility: greater than 5.4 NM
Water temperature 28.0 ° C

Date/timePositionNaut miles runAvg speedWind from/ knotsBaromVisibWave heightAir tempDewpointWater temp
2019-Sep-21 06:00N 26°06' W 078°42'35 8.8 050 / 321023.2 5.4 24.0 28.0
2019-Sep-21 02:03N 26°08' W 079°20'0 8.9
2019-Sep-21 02:00N 26°08' W 079°21'3183.3
2019-Sep-21 02:00N 26°06' W 079°18'713.8 070 / 301023.210.8 27.0 29.0
2019-Sep-21 01:30N 26°06' W 079°25'5 9.3
2019-Sep-21 01:00N 26°03' W 079°30'5 9.6
2019-Sep-21 00:30N 26°01' W 079°35'5 9.5
2019-Sep-21 00:00N 25°59' W 079°39'5 9.7
2019-Sep-20 23:30N 25°56' W 079°44'510.3
2019-Sep-20 23:00N 25°54' W 079°49'510.3
2019-Sep-20 22:30N 25°51' W 079°54'510.2
2019-Sep-20 22:00N 25°48' W 079°58'5 9.8
2019-Sep-20 21:30N 25°45' W 080°03'4 7.5
2019-Sep-20 21:01N 25°45' W 080°07'2 4.5
2019-Sep-20 20:29N 25°46' W 080°09'0 0.0
2019-Sep-20 19:59N 25°46' W 080°09'0 0.0
2019-Sep-20 19:29N 25°46' W 080°09'0 0.0
2019-Sep-20 18:59N 25°46' W 080°09'0 0.0
2019-Sep-20 18:29N 25°46' W 080°09'0 0.0
2019-Sep-20 17:59N 25°46' W 080°09'0 0.0
2019-Sep-20 17:29N 25°46' W 080°09'0 0.0
2019-Sep-20 16:59N 25°46' W 080°09'0 0.0
2019-Sep-20 16:29N 25°46' W 080°09'0 0.0
2019-Sep-20 15:59N 25°46' W 080°09'0 0.0
2019-Sep-20 15:29N 25°46' W 080°09'0 0.0
2019-Sep-20 14:59N 25°46' W 080°09'0 0.0
2019-Sep-20 14:29N 25°46' W 080°09'0 0.0
2019-Sep-20 13:59N 25°46' W 080°09'0 0.0
2019-Sep-20 13:29N 25°46' W 080°09'0 0.0
2019-Sep-20 12:59N 25°46' W 080°09'0 0.0
2019-Sep-20 12:29N 25°46' W 080°09'0 0.0
2019-Sep-20 11:59N 25°46' W 080°09'0 0.0
2019-Sep-20 11:29N 25°46' W 080°09'0 0.0
2019-Sep-20 10:59N 25°46' W 080°09'0 0.0
2019-Sep-20 10:29N 25°46' W 080°09'1 1.6
2019-Sep-20 10:00N 25°47' W 080°10'0 0.7
2019-Sep-20 09:30N 25°47' W 080°10'5 9.4
2019-Sep-20 09:00N 25°46' W 080°05'3 6.5
2019-Sep-20 08:30N 25°47' W 080°01'2 4.2
2019-Sep-20 08:00N 25°49' W 079°60'3 5.2
2019-Sep-20 07:30N 25°50' W 079°57'3 5.8
2019-Sep-20 07:00N 25°52' W 079°54'3 5.3
2019-Sep-20 06:30N 25°53' W 079°52'3 5.2
2019-Sep-20 06:00N 25°55' W 079°50'193.2
2019-Sep-20 06:00N 25°54' W 079°48'2 4.2 060 / 251020.2 5.4 25.0 29.0
2019-Sep-20 05:30N 25°56' W 079°47'3 5.1
2019-Sep-20 05:00N 25°57' W 079°45'3 5.3
2019-Sep-20 04:30N 25°59' W 079°42'3 5.2
2019-Sep-20 04:00N 26°00' W 079°40'3 5.3
2019-Sep-20 03:30N 26°01' W 079°37'3 5.5
2019-Sep-20 03:00N 26°03' W 079°35'3 5.5
2019-Sep-20 02:30N 26°04' W 079°32'3 5.8
2019-Sep-20 02:00N 26°06' W 079°30'5386.7
2019-Sep-20 02:00N 26°06' W 079°24'3 6.3 050 / 271020.210.8 26.0 29.0
2019-Sep-20 01:30N 26°08' W 079°27'3 5.7
2019-Sep-20 01:00N 26°09' W 079°24'3 5.6
2019-Sep-20 00:30N 26°11' W 079°21'3 5.9
2019-Sep-20 00:00N 26°12' W 079°19'10 6.4
2019-Sep-19 22:30N 26°17' W 079°09'9 0.6
2019-Sep-19 08:45N 26°19' W 079°19'2 7.9
2019-Sep-19 08:30N 26°18' W 079°21'4 7.6
2019-Sep-19 08:00N 26°16' W 079°24'4 7.2
2019-Sep-19 07:30N 26°15' W 079°28'4 8.3
2019-Sep-19 07:00N 26°12' W 079°31'140.3
2019-Sep-19 07:00N 26°12' W 079°30'4 8.0 050 / 201020.2 5.4 25.0 29.0
2019-Sep-19 06:30N 26°11' W 079°26'4 8.7
2019-Sep-19 06:00N 26°11' W 079°21'5 9.6
2019-Sep-19 05:30N 26°13' W 079°17'7 9.6
2019-Sep-19 04:46N 26°17' W 079°10'117 4.5
2019-Sep-18 03:00N 25°18' W 077°18'52 2.5 020 / 131019.210.8 28.0 28.0
2019-Sep-17 06:00N 25°54' W 078°00'6115.1 320 / 151018.2 5.4 25.0 30.0
2019-Sep-17 02:00N 26°06' W 079°06'575.2 340 / 181019.210.8 29.0 29.0
2019-Sep-17 01:55N 26°09' W 079°11'613.3
2019-Sep-17 01:29N 26°06' W 079°17'612.8
2019-Sep-17 01:00N 26°04' W 079°23'612.8
2019-Sep-17 00:30N 26°01' W 079°29'612.6
2019-Sep-17 00:00N 25°58' W 079°36'612.5
2019-Sep-16 23:30N 25°56' W 079°42'612.7
2019-Sep-16 23:00N 25°53' W 079°48'713.5
2019-Sep-16 22:30N 25°50' W 079°55'612.9
2019-Sep-16 22:00N 25°47' W 080°02'611.0
2019-Sep-16 21:30N 25°46' W 080°08'3 6.8
2019-Sep-16 21:01N 25°47' W 080°11'1 2.8
2019-Sep-16 20:30N 25°46' W 080°10'0 0.0
2019-Sep-16 20:00N 25°46' W 080°10'0 0.0
2019-Sep-16 19:30N 25°46' W 080°10'0 0.0
2019-Sep-16 19:00N 25°46' W 080°10'0 0.0
2019-Sep-16 18:30N 25°46' W 080°10'0 0.0
2019-Sep-16 18:00N 25°46' W 080°10'0 0.0
2019-Sep-16 17:30N 25°46' W 080°10'0 0.0
2019-Sep-16 17:00N 25°46' W 080°10'0 0.0
2019-Sep-16 16:30N 25°46' W 080°10'0 0.0
2019-Sep-16 16:00N 25°46' W 080°10'0 0.0
2019-Sep-16 15:30N 25°46' W 080°10'0 0.0
2019-Sep-16 15:00N 25°46' W 080°10'0 0.0
2019-Sep-16 14:30N 25°46' W 080°10'0 0.0
2019-Sep-16 14:00N 25°46' W 080°10'0 0.0
2019-Sep-16 13:31N 25°46' W 080°10'0 0.0
2019-Sep-16 12:58N 25°46' W 080°10'0 0.0
2019-Sep-16 12:28N 25°46' W 080°10'0 0.0
2019-Sep-16 11:58N 25°46' W 080°10'0 0.0
2019-Sep-16 11:25N 25°46' W 080°10'0 0.0
2019-Sep-16 10:58N 25°46' W 080°10'0 0.0
2019-Sep-16 10:28N 25°46' W 080°10'0 0.0
2019-Sep-16 09:58N 25°46' W 080°10'2 3.6
2019-Sep-16 09:30N 25°46' W 080°08'611.9
2019-Sep-16 09:00N 25°47' W 080°01'611.4
2019-Sep-16 08:30N 25°49' W 079°56'714.1
2019-Sep-16 08:00N 25°53' W 079°49'714.4
2019-Sep-16 07:30N 25°56' W 079°42'815.5
2019-Sep-16 07:00N 25°59' W 079°34'815.7
2019-Sep-16 06:30N 26°03' W 079°26'815.8
2019-Sep-16 06:00N 26°06' W 079°18'6394.3
2019-Sep-16 06:00N 26°00' W 079°18'4321.6 300 / 201018.2 5.4 24.0 29.0
2019-Sep-16 04:00N 26°00' W 078°30'74 3.0 200 / 151020.2 5.4 26.0 28.0
2019-Sep-15 03:00N 25°24' W 077°18'87 4.1 240 / 27 10.8 26.0 28.0
2019-Sep-14 06:00N 26°06' W 078°42'33 9.8 040 / 241019.2 5.4 25.0 30.0
2019-Sep-14 02:36N 26°08' W 079°19'1 9.2
2019-Sep-14 02:28N 26°08' W 079°20'4 9.2
2019-Sep-14 02:00N 26°06' W 079°24'5 9.6
2019-Sep-14 01:30N 26°03' W 079°29'5 9.5
2019-Sep-14 01:00N 26°01' W 079°34'3237.8
2019-Sep-14 01:00N 26°00' W 079°30'715.4 060 / 25 5.4 26.0 29.0
2019-Sep-14 00:30N 25°59' W 079°38'5 9.6
2019-Sep-14 00:00N 25°57' W 079°43'5 9.6
2019-Sep-13 23:30N 25°55' W 079°48'5 9.6
2019-Sep-13 23:00N 25°52' W 079°52'5 9.1
2019-Sep-13 22:30N 25°50' W 079°56'5 9.2
2019-Sep-13 22:01N 25°47' W 080°01'4 7.2
2019-Sep-13 21:31N 25°46' W 080°04'5 9.2
2019-Sep-13 21:00N 25°46' W 080°09'0 0.2
2019-Sep-13 20:25N 25°46' W 080°09'0 0.0
2019-Sep-13 19:58N 25°46' W 080°09'0 0.0
2019-Sep-13 19:25N 25°46' W 080°09'0 0.0
2019-Sep-13 18:58N 25°46' W 080°09'0 0.0
2019-Sep-13 18:28N 25°46' W 080°09'0 0.0
2019-Sep-13 17:58N 25°46' W 080°09'0 0.0
2019-Sep-13 17:28N 25°46' W 080°09'0 0.0
2019-Sep-13 16:58N 25°46' W 080°09'0 0.0
2019-Sep-13 16:25N 25°46' W 080°09'0 0.0
2019-Sep-13 15:58N 25°46' W 080°09'0 0.0
2019-Sep-13 15:28N 25°46' W 080°09'0 0.0
2019-Sep-13 14:58N 25°46' W 080°09'0 0.0
2019-Sep-13 14:28N 25°46' W 080°09'0 0.0
2019-Sep-13 13:58N 25°46' W 080°09'0 0.0
2019-Sep-13 13:28N 25°46' W 080°09'0 0.0
2019-Sep-13 12:58N 25°46' W 080°09'0 0.0
2019-Sep-13 12:28N 25°46' W 080°09'0 0.0
2019-Sep-13 11:58N 25°46' W 080°09'0 0.0
2019-Sep-13 11:28N 25°46' W 080°09'0 0.0
2019-Sep-13 10:58N 25°46' W 080°09'0 0.0
2019-Sep-13 10:28N 25°46' W 080°09'0 0.5
2019-Sep-13 10:00N 25°46' W 080°10'1 1.7
2019-Sep-13 09:30N 25°47' W 080°11'4 8.7
2019-Sep-13 09:00N 25°46' W 080°06'4 7.6
2019-Sep-13 08:30N 25°47' W 080°02'4 8.0
2019-Sep-13 08:00N 25°49' W 079°58'5 9.6
2019-Sep-13 07:30N 25°52' W 079°54'5 9.9
2019-Sep-13 07:00N 25°54' W 079°49'5 9.5
2019-Sep-13 06:30N 25°57' W 079°45'5 9.9
2019-Sep-13 06:00N 25°60' W 079°40'510.1
2019-Sep-13 05:30N 26°03' W 079°35'510.6
2019-Sep-13 05:00N 26°05' W 079°30'611.3
2019-Sep-13 04:30N 26°08' W 079°25'611.8
2019-Sep-13 04:00N 26°12' W 079°20'1213.1
2019-Sep-13 03:06N 26°17' W 079°08'93 4.4
2019-Sep-12 06:00N 25°48' W 077°30'38 7.5 070 / 161019.2 5.4 25.0 30.0
2019-Sep-12 01:00N 25°12' W 077°18'65 3.4 080 / 271020.210.8 27.0 29.0
2019-Sep-11 06:00N 26°00' W 078°06'   080 / 211024.2 5.4 26.0 30.0

Dump ship's entire track history